createdAt,value
2023-12-30T00:00:42.126Z,8.32
2023-12-30T00:03:09.276Z,8.30
2023-12-30T00:05:36.381Z,8.24
2023-12-30T00:08:03.727Z,8.25
2023-12-30T00:10:32.227Z,8.23
2023-12-30T00:13:00.534Z,8.23
2023-12-30T00:15:27.855Z,8.18
2023-12-30T00:17:55.049Z,8.12
2023-12-30T00:20:22.238Z,8.10
2023-12-30T00:22:49.473Z,8.17
2023-12-30T00:25:17.628Z,8.03
2023-12-30T00:27:44.842Z,8.03
2023-12-30T00:30:14.209Z,8.13
2023-12-30T00:32:42.114Z,8.05
2023-12-30T00:35:09.924Z,8.00
2023-12-30T00:37:37.037Z,7.94
2023-12-30T00:40:04.375Z,7.88
2023-12-30T00:42:31.456Z,7.85
2023-12-30T00:44:58.736Z,7.88
2023-12-30T00:47:26.364Z,7.84
2023-12-30T00:49:53.803Z,7.89
2023-12-30T00:52:21.932Z,8.00
2023-12-30T00:54:51.288Z,7.99
2023-12-30T00:57:18.886Z,7.90
2023-12-30T00:59:46.033Z,7.93
2023-12-30T01:02:13.711Z,8.02
2023-12-30T01:04:40.868Z,7.99
2023-12-30T01:07:08.051Z,7.91
2023-12-30T01:09:35.394Z,7.91
2023-12-30T01:12:02.737Z,7.86
2023-12-30T01:14:30.899Z,7.81
2023-12-30T01:16:57.978Z,7.85
2023-12-30T01:19:26.144Z,7.85
2023-12-30T01:21:53.845Z,8.02
2023-12-30T01:24:20.969Z,8.08
2023-12-30T01:26:48.045Z,7.96
2023-12-30T01:29:15.127Z,7.89
2023-12-30T01:31:42.412Z,7.88
2023-12-30T01:34:10.078Z,7.89
2023-12-30T01:36:37.231Z,8.04
2023-12-30T01:39:04.811Z,8.11
2023-12-30T01:41:32.799Z,8.24
2023-12-30T01:43:59.886Z,8.29
2023-12-30T01:46:27.507Z,8.24
2023-12-30T01:48:54.868Z,8.23
2023-12-30T01:51:25.218Z,8.34
2023-12-30T01:53:56.498Z,8.32
2023-12-30T01:56:26.058Z,8.32
2023-12-30T01:58:53.856Z,8.30
2023-12-30T02:01:27.780Z,7.93
2023-12-30T02:03:54.976Z,7.49
2023-12-30T02:06:22.385Z,7.33
2023-12-30T02:08:49.770Z,7.19
2023-12-30T02:11:17.297Z,7.15
2023-12-30T02:13:45.489Z,7.08
2023-12-30T02:16:13.069Z,6.92
2023-12-30T02:18:40.320Z,6.78
2023-12-30T02:21:07.937Z,6.64
2023-12-30T02:23:35.368Z,6.59
2023-12-30T02:26:03.145Z,6.64
2023-12-30T02:28:30.209Z,6.63
2023-12-30T02:30:57.571Z,6.67
2023-12-30T02:33:25.233Z,6.72
2023-12-30T02:35:53.043Z,6.72
2023-12-30T02:38:20.130Z,6.87
2023-12-30T02:40:47.570Z,6.84
2023-12-30T02:43:14.883Z,6.76
2023-12-30T02:45:41.998Z,6.79
2023-12-30T02:48:09.951Z,6.77
2023-12-30T02:50:37.122Z,6.91
2023-12-30T02:53:04.455Z,6.87
2023-12-30T02:55:31.640Z,6.85
2023-12-30T02:57:59.237Z,6.85
2023-12-30T03:00:26.331Z,6.88
2023-12-30T03:02:54.420Z,6.86
2023-12-30T03:05:21.770Z,6.91
2023-12-30T03:07:48.972Z,6.91
2023-12-30T03:10:16.542Z,6.81
2023-12-30T03:12:43.741Z,6.82
2023-12-30T03:15:10.787Z,6.81
2023-12-30T03:17:37.990Z,6.68
2023-12-30T03:20:06.065Z,6.72
2023-12-30T03:22:34.104Z,6.77
2023-12-30T03:25:01.281Z,6.73
2023-12-30T03:27:28.415Z,6.67
2023-12-30T03:29:55.494Z,6.71
2023-12-30T03:32:22.598Z,6.74
2023-12-30T03:34:50.803Z,6.77
2023-12-30T03:37:18.043Z,6.77
2023-12-30T03:39:45.169Z,6.81
2023-12-30T03:42:12.276Z,6.88
2023-12-30T03:44:39.443Z,6.86
2023-12-30T03:47:06.549Z,6.89
2023-12-30T03:49:35.181Z,6.95
2023-12-30T03:52:02.486Z,7.03
2023-12-30T03:54:29.609Z,7.11
2023-12-30T03:56:56.856Z,7.11
2023-12-30T03:59:24.075Z,7.04
2023-12-30T04:01:51.829Z,6.56
2023-12-30T04:04:19.023Z,6.33
2023-12-30T04:06:46.123Z,6.03
2023-12-30T04:09:13.188Z,5.92
2023-12-30T04:11:40.360Z,5.84
2023-12-30T04:14:07.536Z,5.69
2023-12-30T04:16:34.753Z,5.62
2023-12-30T04:19:01.996Z,5.61
2023-12-30T04:21:29.229Z,5.84
2023-12-30T04:23:56.307Z,5.77
2023-12-30T04:26:23.572Z,5.73
2023-12-30T04:28:50.760Z,5.73
2023-12-30T04:31:18.445Z,5.68
2023-12-30T04:33:45.637Z,5.82
2023-12-30T04:36:12.997Z,5.80
2023-12-30T04:38:43.580Z,5.79
2023-12-30T04:41:11.975Z,6.04
2023-12-30T04:43:39.193Z,6.03
2023-12-30T04:46:06.484Z,6.15
2023-12-30T04:48:33.829Z,6.02
2023-12-30T04:51:01.027Z,6.09
2023-12-30T04:53:28.159Z,5.99
2023-12-30T04:55:55.257Z,6.03
2023-12-30T04:58:22.496Z,5.97
2023-12-30T05:00:49.867Z,5.90
2023-12-30T05:03:17.992Z,5.88
2023-12-30T05:05:45.260Z,5.88
2023-12-30T05:08:12.452Z,5.91
2023-12-30T05:10:39.668Z,5.77
2023-12-30T05:13:07.492Z,5.84
2023-12-30T05:15:34.823Z,5.85
2023-12-30T05:18:02.304Z,5.94
2023-12-30T05:20:29.534Z,6.00
2023-12-30T05:23:00.960Z,6.00
2023-12-30T05:25:28.197Z,6.06
2023-12-30T05:27:55.539Z,6.12
2023-12-30T05:30:23.262Z,6.11
2023-12-30T05:32:50.384Z,6.03
2023-12-30T05:35:18.248Z,6.04
2023-12-30T05:37:45.285Z,6.07
2023-12-30T05:40:12.746Z,6.09
2023-12-30T05:42:39.831Z,6.07
2023-12-30T05:45:07.604Z,6.13
2023-12-30T05:47:34.767Z,6.09
2023-12-30T05:50:02.165Z,6.09
2023-12-30T05:52:29.852Z,6.08
2023-12-30T05:54:57.145Z,6.07
2023-12-30T05:57:24.400Z,6.21
2023-12-30T05:59:51.482Z,6.21
2023-12-30T06:02:18.577Z,6.16
2023-12-30T06:04:45.700Z,6.18
2023-12-30T06:07:13.338Z,6.18
2023-12-30T06:09:40.451Z,6.10
2023-12-30T06:12:07.736Z,6.08
2023-12-30T06:14:36.265Z,6.05
2023-12-30T06:17:04.292Z,6.03
2023-12-30T06:19:33.933Z,6.01
2023-12-30T06:22:01.409Z,6.00
2023-12-30T06:24:28.532Z,6.04
2023-12-30T06:26:55.659Z,6.03
2023-12-30T06:29:22.873Z,6.01
2023-12-30T06:31:51.083Z,6.01
2023-12-30T06:34:18.471Z,6.05
2023-12-30T06:36:46.547Z,6.07
2023-12-30T06:39:14.447Z,6.01
2023-12-30T06:41:41.672Z,5.94
2023-12-30T06:44:09.596Z,5.90
2023-12-30T06:46:36.837Z,5.91
2023-12-30T06:49:04.082Z,5.88
2023-12-30T06:51:31.219Z,5.86
2023-12-30T06:53:58.289Z,5.93
2023-12-30T06:56:25.488Z,5.87
2023-12-30T06:58:53.205Z,5.84
2023-12-30T07:01:25.358Z,5.83
2023-12-30T07:03:53.000Z,5.83
2023-12-30T07:06:20.120Z,5.80
2023-12-30T07:08:47.184Z,5.76
2023-12-30T07:11:14.288Z,5.76
2023-12-30T07:13:41.506Z,5.69
2023-12-30T07:16:08.756Z,5.74
2023-12-30T07:18:36.138Z,5.72
2023-12-30T07:21:04.128Z,5.69
2023-12-30T07:23:31.202Z,5.68
2023-12-30T07:25:58.486Z,5.60
2023-12-30T07:28:25.599Z,5.58
2023-12-30T07:30:52.804Z,5.57
2023-12-30T07:33:20.048Z,5.62
2023-12-30T07:35:47.215Z,5.66
2023-12-30T07:38:14.506Z,5.58
2023-12-30T07:40:41.686Z,5.57
2023-12-30T07:43:09.709Z,5.61
2023-12-30T07:45:36.896Z,5.57
2023-12-30T07:48:04.353Z,5.60
2023-12-30T07:50:31.543Z,5.62
2023-12-30T07:52:58.664Z,5.61
2023-12-30T07:55:25.883Z,5.54
2023-12-30T07:57:53.337Z,5.49
2023-12-30T08:00:20.589Z,5.47
2023-12-30T08:02:47.725Z,5.48
2023-12-30T08:05:14.891Z,5.52
2023-12-30T08:07:42.104Z,5.61
2023-12-30T08:10:09.384Z,5.71
2023-12-30T08:12:37.851Z,5.70
2023-12-30T08:15:05.901Z,5.71
2023-12-30T08:17:33.085Z,5.66
2023-12-30T08:20:00.140Z,5.60
2023-12-30T08:22:27.323Z,5.59
2023-12-30T08:24:55.293Z,5.58
2023-12-30T08:27:22.575Z,5.60
2023-12-30T08:29:49.862Z,5.61
2023-12-30T08:32:16.928Z,5.63
2023-12-30T08:34:44.053Z,5.62
2023-12-30T08:37:11.296Z,5.67
2023-12-30T08:39:39.153Z,5.67
2023-12-30T08:42:06.949Z,5.68
2023-12-30T08:44:34.213Z,5.76
2023-12-30T08:47:01.336Z,5.83
2023-12-30T08:49:28.549Z,5.98
2023-12-30T08:51:55.782Z,6.08
2023-12-30T08:54:22.964Z,6.01
2023-12-30T08:56:51.954Z,5.94
2023-12-30T08:59:19.348Z,5.98
2023-12-30T09:01:46.512Z,6.01
2023-12-30T09:04:13.861Z,5.92
2023-12-30T09:06:40.990Z,5.88
2023-12-30T09:09:08.076Z,5.85
2023-12-30T09:11:39.105Z,5.83
2023-12-30T09:14:06.603Z,5.80
2023-12-30T09:16:34.412Z,5.80
2023-12-30T09:19:02.081Z,5.81
2023-12-30T09:21:30.767Z,5.85
2023-12-30T09:23:58.401Z,5.87
2023-12-30T09:26:26.512Z,5.94
2023-12-30T09:28:54.159Z,6.01
2023-12-30T09:31:21.629Z,5.96
2023-12-30T09:33:50.312Z,6.01
2023-12-30T09:36:18.778Z,6.07
2023-12-30T09:38:45.885Z,6.05
2023-12-30T09:41:14.602Z,6.11
2023-12-30T09:43:43.266Z,6.41
2023-12-30T09:46:10.889Z,6.83
2023-12-30T09:48:40.731Z,6.85
2023-12-30T09:51:08.523Z,6.86
2023-12-30T09:53:35.502Z,6.84
2023-12-30T09:56:03.814Z,6.85
2023-12-30T09:58:32.640Z,7.00
2023-12-30T10:01:00.024Z,6.88
2023-12-30T10:03:29.631Z,6.90
2023-12-30T10:06:00.729Z,6.98
2023-12-30T10:08:31.124Z,7.09
2023-12-30T10:10:58.584Z,6.88
2023-12-30T10:13:28.630Z,6.99
2023-12-30T10:15:59.931Z,6.92
2023-12-30T10:18:27.385Z,6.77
2023-12-30T10:20:55.063Z,6.73
2023-12-30T10:23:22.749Z,6.67
2023-12-30T10:25:49.934Z,6.69
2023-12-30T10:28:17.713Z,6.70
2023-12-30T10:30:44.885Z,6.74
2023-12-30T10:33:14.009Z,6.70
2023-12-30T10:35:45.467Z,6.84
2023-12-30T10:38:14.889Z,6.86
2023-12-30T10:40:42.410Z,6.88
2023-12-30T10:43:10.522Z,6.88
2023-12-30T10:45:38.518Z,6.89
2023-12-30T10:48:09.410Z,6.77
2023-12-30T10:50:42.496Z,6.74
2023-12-30T10:53:17.113Z,6.73
2023-12-30T10:55:52.094Z,6.75
2023-12-30T10:58:21.478Z,6.77
2023-12-30T11:00:54.238Z,6.76
2023-12-30T11:03:22.771Z,6.84
2023-12-30T11:06:28.746Z,6.84
2023-12-30T11:09:09.855Z,6.84
2023-12-30T11:11:53.847Z,6.78
2023-12-30T11:14:21.696Z,6.77
2023-12-30T11:16:52.281Z,6.74
2023-12-30T11:19:27.092Z,6.71
2023-12-30T11:21:55.969Z,6.63
2023-12-30T11:24:23.738Z,6.65
2023-12-30T11:26:53.946Z,6.61
2023-12-30T11:29:29.359Z,6.51
2023-12-30T11:31:59.985Z,6.38
2023-12-30T11:34:27.975Z,6.22
2023-12-30T11:36:58.963Z,6.12
2023-12-30T11:39:33.140Z,6.09
2023-12-30T11:42:01.472Z,6.06
2023-12-30T11:44:29.091Z,6.05
2023-12-30T11:46:57.817Z,6.07
2023-12-30T11:49:26.496Z,6.10
2023-12-30T11:52:05.318Z,6.09
2023-12-30T11:54:37.148Z,6.08
2023-12-30T11:57:07.814Z,6.06
2023-12-30T11:59:34.998Z,6.03
2023-12-30T12:02:15.809Z,6.05
2023-12-30T12:04:43.449Z,6.00
2023-12-30T12:07:12.133Z,5.97
2023-12-30T12:09:41.587Z,5.93
2023-12-30T12:12:08.990Z,5.87
2023-12-30T12:14:36.451Z,5.79
2023-12-30T12:17:07.116Z,5.80
2023-12-30T12:19:37.038Z,5.87
2023-12-30T12:22:04.356Z,5.94
2023-12-30T12:24:32.900Z,5.98
2023-12-30T12:27:00.025Z,6.00
2023-12-30T12:29:27.158Z,5.99
2023-12-30T12:31:54.723Z,5.96
2023-12-30T12:34:26.863Z,5.92
2023-12-30T12:36:54.906Z,5.88
2023-12-30T12:39:22.237Z,5.88
2023-12-30T12:41:49.643Z,5.92
2023-12-30T12:44:16.880Z,5.93
2023-12-30T12:46:44.111Z,5.92
2023-12-30T12:49:11.372Z,5.97
2023-12-30T12:51:40.633Z,5.96
2023-12-30T12:54:07.970Z,5.99
2023-12-30T12:56:35.473Z,6.01
2023-12-30T12:59:02.531Z,6.04
2023-12-30T13:01:30.083Z,6.08
2023-12-30T13:03:59.319Z,6.07
2023-12-30T13:06:26.657Z,6.12
2023-12-30T13:08:57.122Z,6.14
2023-12-30T13:11:28.356Z,6.21
2023-12-30T13:13:56.311Z,6.26
2023-12-30T13:16:24.922Z,6.31
2023-12-30T13:18:52.239Z,6.32
2023-12-30T13:21:19.626Z,6.40
2023-12-30T13:23:50.552Z,6.43
2023-12-30T13:26:19.719Z,6.49
2023-12-30T13:28:47.382Z,6.52
2023-12-30T13:31:18.984Z,6.55
2023-12-30T13:33:46.527Z,6.60
2023-12-30T13:36:14.089Z,6.57
2023-12-30T13:38:45.024Z,6.63
2023-12-30T13:41:12.415Z,6.59
2023-12-30T13:43:39.578Z,6.58
2023-12-30T13:46:26.657Z,6.65
2023-12-30T13:49:13.047Z,6.62
2023-12-30T13:51:45.666Z,6.66
2023-12-30T13:54:13.236Z,6.68
2023-12-30T13:56:43.576Z,6.67
2023-12-30T13:59:13.191Z,6.70
2023-12-30T14:01:40.643Z,6.69
2023-12-30T14:04:08.852Z,6.66
2023-12-30T14:06:39.322Z,6.74
2023-12-30T14:09:32.701Z,6.73
2023-12-30T14:12:06.848Z,6.74
2023-12-30T14:14:46.122Z,6.75
2023-12-30T14:17:15.170Z,6.76
2023-12-30T14:19:43.418Z,6.76
2023-12-30T14:22:10.999Z,6.75
2023-12-30T14:24:38.427Z,6.77
2023-12-30T14:27:05.617Z,6.80
2023-12-30T14:29:32.750Z,6.74
2023-12-30T14:31:59.862Z,6.73
2023-12-30T14:34:27.327Z,6.74
2023-12-30T14:36:54.539Z,6.71
2023-12-30T14:39:22.941Z,6.67
2023-12-30T14:41:50.156Z,6.65
2023-12-30T14:44:17.678Z,6.65
2023-12-30T14:46:45.255Z,6.57
2023-12-30T14:49:13.572Z,6.53
2023-12-30T14:51:40.795Z,6.45
2023-12-30T14:54:07.858Z,6.40
2023-12-30T14:56:35.438Z,6.39
2023-12-30T14:59:02.865Z,6.41
2023-12-30T15:01:30.136Z,6.41
2023-12-30T15:04:00.837Z,6.37
2023-12-30T15:06:28.663Z,6.33
2023-12-30T15:08:57.511Z,6.34
2023-12-30T15:11:24.607Z,6.31
2023-12-30T15:13:53.016Z,6.23
2023-12-30T15:16:21.381Z,6.15
2023-12-30T15:18:48.647Z,6.14
2023-12-30T15:21:16.543Z,6.08
2023-12-30T15:23:43.695Z,6.08
2023-12-30T15:26:11.090Z,6.04
2023-12-30T15:28:38.501Z,6.01
2023-12-30T15:31:05.912Z,5.98
2023-12-30T15:33:33.346Z,5.92
2023-12-30T15:36:03.836Z,5.83
2023-12-30T15:38:32.836Z,5.88
2023-12-30T15:41:00.676Z,5.83
2023-12-30T15:43:30.204Z,5.77
2023-12-30T15:45:57.265Z,5.78
2023-12-30T15:48:25.569Z,5.75
2023-12-30T15:50:52.766Z,5.75
2023-12-30T15:53:20.538Z,5.71
2023-12-30T15:55:48.624Z,5.74
2023-12-30T15:58:15.851Z,5.72
2023-12-30T16:00:43.054Z,5.72
2023-12-30T16:03:12.837Z,5.62
2023-12-30T16:05:41.627Z,5.76
2023-12-30T16:08:10.770Z,5.69
2023-12-30T16:10:38.137Z,5.66
2023-12-30T16:13:08.250Z,5.57
2023-12-30T16:15:37.821Z,5.63
2023-12-30T16:18:06.152Z,5.67
2023-12-30T16:20:33.465Z,5.61
2023-12-30T16:23:05.073Z,5.74
2023-12-30T16:25:32.728Z,5.71
2023-12-30T16:27:59.990Z,5.77
2023-12-30T16:30:27.178Z,5.74
2023-12-30T16:32:54.785Z,5.73
2023-12-30T16:35:22.117Z,5.69
2023-12-30T16:37:50.572Z,5.55
2023-12-30T16:40:17.773Z,5.47
2023-12-30T16:42:44.966Z,5.39
2023-12-30T16:45:12.114Z,5.36
2023-12-30T16:47:41.365Z,5.26
2023-12-30T16:50:08.767Z,5.23
2023-12-30T16:52:37.061Z,5.10
2023-12-30T16:55:04.693Z,5.03
2023-12-30T16:57:31.817Z,5.02
2023-12-30T16:59:58.880Z,4.92
2023-12-30T17:02:26.467Z,4.97
2023-12-30T17:04:53.619Z,4.95
2023-12-30T17:07:20.714Z,4.87
2023-12-30T17:09:47.782Z,4.84
2023-12-30T17:12:14.851Z,4.93
2023-12-30T17:14:43.212Z,4.96
2023-12-30T17:17:10.342Z,5.00
2023-12-30T17:19:37.699Z,5.05
2023-12-30T17:22:04.944Z,5.13
2023-12-30T17:24:32.076Z,5.12
2023-12-30T17:27:02.413Z,5.09
2023-12-30T17:29:30.631Z,5.09
2023-12-30T17:31:58.720Z,5.13
2023-12-30T17:34:26.220Z,5.27
2023-12-30T17:36:53.309Z,5.31
2023-12-30T17:39:20.371Z,5.21
2023-12-30T17:41:47.573Z,5.26
2023-12-30T17:44:15.219Z,5.28
2023-12-30T17:46:42.319Z,5.31
2023-12-30T17:49:10.077Z,5.37
2023-12-30T17:51:38.163Z,5.39
2023-12-30T17:54:05.304Z,5.35
2023-12-30T17:56:32.348Z,5.37
2023-12-30T17:58:59.534Z,5.32
2023-12-30T18:01:26.779Z,5.23
2023-12-30T18:03:53.911Z,5.14
2023-12-30T18:06:21.385Z,5.17
2023-12-30T18:08:48.464Z,5.01
2023-12-30T18:11:15.604Z,4.99
2023-12-30T18:13:43.105Z,4.94
2023-12-30T18:16:10.471Z,4.97
2023-12-30T18:18:37.878Z,4.94
2023-12-30T18:21:05.142Z,4.95
2023-12-30T18:23:32.271Z,4.90
2023-12-30T18:25:59.341Z,4.89
2023-12-30T18:28:26.430Z,4.81
2023-12-30T18:30:54.305Z,4.82
2023-12-30T18:33:21.426Z,4.84
2023-12-30T18:35:48.452Z,4.78
2023-12-30T18:38:15.504Z,4.88
2023-12-30T18:40:44.287Z,4.86
2023-12-30T18:43:12.783Z,4.89
2023-12-30T18:45:41.527Z,4.89
2023-12-30T18:48:09.950Z,4.74
2023-12-30T18:50:37.929Z,4.66
2023-12-30T18:53:05.226Z,4.78
2023-12-30T18:55:33.932Z,4.72
2023-12-30T18:58:01.241Z,4.67
2023-12-30T19:00:28.515Z,4.70
2023-12-30T19:02:56.116Z,4.72
2023-12-30T19:05:23.302Z,4.73
2023-12-30T19:07:50.483Z,4.73
2023-12-30T19:10:17.755Z,4.76
2023-12-30T19:12:45.850Z,4.83
2023-12-30T19:15:13.009Z,4.85
2023-12-30T19:17:40.561Z,4.87
2023-12-30T19:20:08.437Z,4.80
2023-12-30T19:22:35.513Z,4.78
2023-12-30T19:25:03.782Z,4.86
2023-12-30T19:27:31.411Z,4.84
2023-12-30T19:29:58.585Z,4.74
2023-12-30T19:32:25.666Z,4.66
2023-12-30T19:34:52.753Z,4.58
2023-12-30T19:37:21.058Z,4.69
2023-12-30T19:39:48.200Z,4.89
2023-12-30T19:42:15.462Z,4.78
2023-12-30T19:44:42.576Z,4.78
2023-12-30T19:47:09.722Z,4.73
2023-12-30T19:49:36.871Z,4.72
2023-12-30T19:52:04.140Z,4.80
2023-12-30T19:54:31.278Z,4.79
2023-12-30T19:56:58.793Z,4.90
2023-12-30T19:59:26.466Z,4.88
2023-12-30T20:01:53.604Z,4.82
2023-12-30T20:04:20.978Z,4.91
2023-12-30T20:06:50.112Z,4.93
2023-12-30T20:09:17.179Z,4.96
2023-12-30T20:11:46.009Z,5.00
2023-12-30T20:14:16.303Z,4.97
2023-12-30T20:16:43.713Z,5.00
2023-12-30T20:19:12.382Z,5.07
2023-12-30T20:21:41.303Z,5.05
2023-12-30T20:24:09.996Z,5.11
2023-12-30T20:26:37.490Z,5.21
2023-12-30T20:29:04.577Z,5.21
2023-12-30T20:31:31.811Z,5.11
2023-12-30T20:33:59.343Z,5.18
2023-12-30T20:36:27.122Z,5.20
2023-12-30T20:38:55.465Z,5.31
2023-12-30T20:41:22.556Z,5.23
2023-12-30T20:43:49.706Z,5.28
2023-12-30T20:46:16.886Z,5.14
2023-12-30T20:48:44.914Z,5.18
2023-12-30T20:51:12.318Z,5.17
2023-12-30T20:53:39.669Z,5.16
2023-12-30T20:56:06.922Z,5.24
2023-12-30T20:58:34.107Z,5.19
2023-12-30T21:01:01.244Z,5.21
2023-12-30T21:03:30.485Z,5.13
2023-12-30T21:05:58.465Z,5.10
2023-12-30T21:08:25.540Z,5.23
2023-12-30T21:10:52.780Z,5.26
2023-12-30T21:13:20.945Z,5.19
2023-12-30T21:15:48.273Z,5.08
2023-12-30T21:18:15.922Z,4.97
2023-12-30T21:20:43.082Z,5.07
2023-12-30T21:23:10.198Z,4.95
2023-12-30T21:25:37.331Z,4.98
2023-12-30T21:28:05.715Z,4.92
2023-12-30T21:30:33.220Z,4.94
2023-12-30T21:33:00.935Z,4.97
2023-12-30T21:35:28.111Z,4.98
2023-12-30T21:37:55.131Z,5.06
2023-12-30T21:40:23.187Z,5.06
2023-12-30T21:42:50.252Z,5.16
2023-12-30T21:45:18.394Z,5.05
2023-12-30T21:47:45.780Z,5.07
2023-12-30T21:50:13.476Z,5.02
2023-12-30T21:52:43.654Z,4.91
2023-12-30T21:55:11.134Z,4.95
2023-12-30T21:57:39.775Z,4.82
2023-12-30T22:00:07.651Z,4.87
2023-12-30T22:02:35.285Z,4.87
2023-12-30T22:05:02.478Z,4.90
2023-12-30T22:07:29.693Z,4.84
2023-12-30T22:09:57.178Z,4.73
2023-12-30T22:12:24.237Z,4.78
2023-12-30T22:14:51.865Z,4.83
2023-12-30T22:17:18.947Z,4.80
2023-12-30T22:19:48.355Z,4.80
2023-12-30T22:22:15.536Z,4.79
2023-12-30T22:24:42.736Z,4.70
2023-12-30T22:27:09.846Z,4.70
2023-12-30T22:29:36.996Z,4.66
2023-12-30T22:32:04.396Z,4.65
2023-12-30T22:34:31.741Z,4.78
2023-12-30T22:36:59.193Z,4.87
2023-12-30T22:39:26.305Z,4.77
2023-12-30T22:41:54.196Z,4.84
2023-12-30T22:44:22.746Z,4.87
2023-12-30T22:46:50.019Z,4.90
2023-12-30T22:49:17.350Z,4.90
2023-12-30T22:51:48.740Z,4.95
2023-12-30T22:54:16.744Z,4.89
2023-12-30T22:56:44.872Z,4.79
2023-12-30T22:59:19.165Z,4.74
2023-12-30T23:01:46.388Z,4.79
2023-12-30T23:04:14.124Z,4.62
2023-12-30T23:06:41.446Z,4.52
2023-12-30T23:09:08.500Z,4.45
2023-12-30T23:11:35.654Z,4.43
2023-12-30T23:14:02.832Z,4.63
2023-12-30T23:16:30.025Z,4.61
2023-12-30T23:18:57.841Z,4.62
2023-12-30T23:21:32.433Z,4.60
2023-12-30T23:23:59.838Z,4.46
2023-12-30T23:26:27.019Z,4.51
2023-12-30T23:28:54.886Z,4.38
2023-12-30T23:31:22.069Z,4.57
2023-12-30T23:33:49.202Z,4.63
2023-12-30T23:36:16.442Z,4.79
2023-12-30T23:38:43.606Z,4.65
2023-12-30T23:41:10.703Z,4.71
2023-12-30T23:43:38.067Z,4.62
2023-12-30T23:46:05.129Z,4.61
2023-12-30T23:48:32.267Z,4.55
2023-12-30T23:50:59.337Z,4.48
2023-12-30T23:53:26.479Z,4.57
2023-12-30T23:55:53.719Z,4.68
2023-12-30T23:58:20.886Z,4.59
